sensor_id;sensor_type;location;lat;lon;timestamp;pressure;altitude;pressure_sealevel;temperature;humidity
21401;BME280;18038;50.166;18.908;2022-09-21T00:01:05;98372.44;;;7.13;77.69
21401;BME280;18038;50.166;18.908;2022-09-21T00:04:14;98375.25;;;7.12;77.45
21401;BME280;18038;50.166;18.908;2022-09-21T00:07:20;98372.09;;;7.08;77.94
21401;BME280;18038;50.166;18.908;2022-09-21T00:10:26;98380.41;;;7.13;77.20
21401;BME280;18038;50.166;18.908;2022-09-21T00:13:33;98374.56;;;7.18;77.16
21401;BME280;18038;50.166;18.908;2022-09-21T00:16:40;98371.28;;;7.16;77.48
21401;BME280;18038;50.166;18.908;2022-09-21T00:19:49;98375.72;;;7.16;77.02
21401;BME280;18038;50.166;18.908;2022-09-21T00:22:55;98381.22;;;7.14;77.35
21401;BME280;18038;50.166;18.908;2022-09-21T00:26:06;98381.56;;;7.19;77.37
21401;BME280;18038;50.166;18.908;2022-09-21T00:29:13;98381.72;;;7.26;76.70
21401;BME280;18038;50.166;18.908;2022-09-21T00:32:19;98380.41;;;7.13;76.75
21401;BME280;18038;50.166;18.908;2022-09-21T00:35:29;98376.25;;;7.11;77.13
21401;BME280;18038;50.166;18.908;2022-09-21T00:38:36;98384.03;;;7.04;76.98
21401;BME280;18038;50.166;18.908;2022-09-21T00:41:41;98380.06;;;7.08;77.38
21401;BME280;18038;50.166;18.908;2022-09-21T00:44:48;98377.53;;;6.99;77.44
21401;BME280;18038;50.166;18.908;2022-09-21T00:47:54;98380.00;;;6.92;77.41
21401;BME280;18038;50.166;18.908;2022-09-21T00:51:10;98384.50;;;6.91;77.61
21401;BME280;18038;50.166;18.908;2022-09-21T00:54:22;98384.00;;;6.88;78.11
21401;BME280;18038;50.166;18.908;2022-09-21T00:57:31;98383.50;;;6.84;77.62
21401;BME280;18038;50.166;18.908;2022-09-21T01:00:42;98382.16;;;6.72;78.39
21401;BME280;18038;50.166;18.908;2022-09-21T01:03:50;98381.00;;;6.75;78.30
21401;BME280;18038;50.166;18.908;2022-09-21T01:07:07;98385.97;;;6.78;78.15
21401;BME280;18038;50.166;18.908;2022-09-21T01:10:18;98394.97;;;6.85;78.05
21401;BME280;18038;50.166;18.908;2022-09-21T01:13:33;98390.81;;;6.82;78.10
21401;BME280;18038;50.166;18.908;2022-09-21T01:16:59;98391.47;;;6.84;78.02
21401;BME280;18038;50.166;18.908;2022-09-21T01:24:55;98392.66;;;6.90;77.79
21401;BME280;18038;50.166;18.908;2022-09-21T01:28:23;98394.44;;;6.89;78.06
21401;BME280;18038;50.166;18.908;2022-09-21T01:31:49;98394.97;;;6.93;77.59
21401;BME280;18038;50.166;18.908;2022-09-21T01:35:04;98394.50;;;6.98;77.92
21401;BME280;18038;50.166;18.908;2022-09-21T01:38:18;98400.09;;;6.95;77.87
21401;BME280;18038;50.166;18.908;2022-09-21T01:41:31;98393.59;;;6.81;78.19
21401;BME280;18038;50.166;18.908;2022-09-21T01:44:41;98398.94;;;6.89;77.76
21401;BME280;18038;50.166;18.908;2022-09-21T01:47:57;98394.78;;;6.95;77.62
21401;BME280;18038;50.166;18.908;2022-09-21T01:51:10;98395.31;;;6.90;78.32
21401;BME280;18038;50.166;18.908;2022-09-21T01:54:23;98398.31;;;6.95;77.81
21401;BME280;18038;50.166;18.908;2022-09-21T01:57:41;98412.41;;;7.04;77.68
21401;BME280;18038;50.166;18.908;2022-09-21T02:00:54;98403.09;;;7.00;77.75
21401;BME280;18038;50.166;18.908;2022-09-21T02:04:10;98403.97;;;7.00;77.59
21401;BME280;18038;50.166;18.908;2022-09-21T02:07:18;98402.75;;;6.95;78.01
21401;BME280;18038;50.166;18.908;2022-09-21T02:10:30;98412.56;;;7.02;77.81
21401;BME280;18038;50.166;18.908;2022-09-21T02:13:47;98406.75;;;6.99;77.75
21401;BME280;18038;50.166;18.908;2022-09-21T02:17:06;98411.09;;;7.08;77.89
21401;BME280;18038;50.166;18.908;2022-09-21T02:20:29;98412.75;;;7.09;77.70
21401;BME280;18038;50.166;18.908;2022-09-21T02:23:42;98409.78;;;7.12;77.63
21401;BME280;18038;50.166;18.908;2022-09-21T02:27:02;98418.56;;;7.21;77.40
21401;BME280;18038;50.166;18.908;2022-09-21T02:30:14;98408.78;;;7.21;77.38
21401;BME280;18038;50.166;18.908;2022-09-21T02:33:27;98415.09;;;7.20;77.55
21401;BME280;18038;50.166;18.908;2022-09-21T02:36:46;98409.63;;;7.13;77.13
21401;BME280;18038;50.166;18.908;2022-09-21T02:40:04;98413.44;;;7.19;76.81
21401;BME280;18038;50.166;18.908;2022-09-21T02:43:26;98405.78;;;7.08;77.16
21401;BME280;18038;50.166;18.908;2022-09-21T02:46:45;98417.72;;;7.04;77.70
21401;BME280;18038;50.166;18.908;2022-09-21T02:50:02;98415.25;;;7.10;77.66
21401;BME280;18038;50.166;18.908;2022-09-21T02:53:21;98418.75;;;7.11;77.20
21401;BME280;18038;50.166;18.908;2022-09-21T02:56:31;98429.19;;;7.12;77.25
21401;BME280;18038;50.166;18.908;2022-09-21T02:59:37;98423.22;;;7.19;77.17
21401;BME280;18038;50.166;18.908;2022-09-21T03:02:44;98426.06;;;7.17;77.18
21401;BME280;18038;50.166;18.908;2022-09-21T03:05:52;98437.16;;;7.12;77.50
21401;BME280;18038;50.166;18.908;2022-09-21T03:09:02;98431.38;;;7.17;76.84
21401;BME280;18038;50.166;18.908;2022-09-21T03:12:08;98438.00;;;7.21;76.72
21401;BME280;18038;50.166;18.908;2022-09-21T03:15:15;98440.34;;;7.24;76.93
21401;BME280;18038;50.166;18.908;2022-09-21T03:18:21;98443.16;;;7.23;76.72
21401;BME280;18038;50.166;18.908;2022-09-21T03:21:26;98451.97;;;7.23;76.99
21401;BME280;18038;50.166;18.908;2022-09-21T03:24:35;98453.66;;;7.24;76.64
21401;BME280;18038;50.166;18.908;2022-09-21T03:27:49;98451.97;;;7.23;76.47
21401;BME280;18038;50.166;18.908;2022-09-21T03:30:56;98452.28;;;7.20;76.79
21401;BME280;18038;50.166;18.908;2022-09-21T03:34:02;98455.63;;;7.22;76.76
21401;BME280;18038;50.166;18.908;2022-09-21T03:37:09;98465.78;;;7.27;76.41
21401;BME280;18038;50.166;18.908;2022-09-21T03:40:18;98462.59;;;7.23;77.11
21401;BME280;18038;50.166;18.908;2022-09-21T03:43:27;98464.66;;;7.29;76.50
21401;BME280;18038;50.166;18.908;2022-09-21T03:46:33;98459.59;;;7.26;76.49
21401;BME280;18038;50.166;18.908;2022-09-21T03:49:39;98475.84;;;7.15;77.15
21401;BME280;18038;50.166;18.908;2022-09-21T03:52:44;98472.72;;;7.11;77.07
21401;BME280;18038;50.166;18.908;2022-09-21T03:55:53;98472.19;;;7.08;77.42
21401;BME280;18038;50.166;18.908;2022-09-21T03:59:00;98474.16;;;6.98;76.92
21401;BME280;18038;50.166;18.908;2022-09-21T04:02:15;98471.66;;;6.96;77.27
21401;BME280;18038;50.166;18.908;2022-09-21T04:05:21;98486.09;;;6.94;77.49
21401;BME280;18038;50.166;18.908;2022-09-21T04:08:29;98480.63;;;6.95;77.76
21401;BME280;18038;50.166;18.908;2022-09-21T04:11:37;98482.41;;;6.86;77.26
21401;BME280;18038;50.166;18.908;2022-09-21T04:14:43;98480.47;;;6.97;77.50
21401;BME280;18038;50.166;18.908;2022-09-21T04:17:50;98479.47;;;6.98;76.95
21401;BME280;18038;50.166;18.908;2022-09-21T04:20:57;98476.16;;;7.04;77.31
21401;BME280;18038;50.166;18.908;2022-09-21T04:24:04;98476.84;;;7.06;77.35
21401;BME280;18038;50.166;18.908;2022-09-21T04:27:13;98472.84;;;7.10;76.90
21401;BME280;18038;50.166;18.908;2022-09-21T04:30:21;98482.19;;;7.14;76.84
21401;BME280;18038;50.166;18.908;2022-09-21T04:33:27;98483.81;;;7.15;76.74
21401;BME280;18038;50.166;18.908;2022-09-21T04:36:33;98494.63;;;7.13;76.73
21401;BME280;18038;50.166;18.908;2022-09-21T04:39:38;98495.47;;;7.14;76.71
21401;BME280;18038;50.166;18.908;2022-09-21T04:42:50;98486.13;;;7.10;76.85
21401;BME280;18038;50.166;18.908;2022-09-21T04:46:06;98485.94;;;6.95;77.64
21401;BME280;18038;50.166;18.908;2022-09-21T04:49:13;98487.91;;;6.85;78.08
21401;BME280;18038;50.166;18.908;2022-09-21T04:52:19;98491.72;;;6.90;77.68
21401;BME280;18038;50.166;18.908;2022-09-21T04:55:25;98500.03;;;6.87;77.74
21401;BME280;18038;50.166;18.908;2022-09-21T04:58:33;98495.06;;;6.93;77.91
21401;BME280;18038;50.166;18.908;2022-09-21T05:01:41;98494.88;;;6.94;77.66
21401;BME280;18038;50.166;18.908;2022-09-21T05:04:46;98494.75;;;7.04;77.78
21401;BME280;18038;50.166;18.908;2022-09-21T05:07:52;98494.09;;;7.02;77.24
21401;BME280;18038;50.166;18.908;2022-09-21T05:10:57;98502.38;;;6.99;77.53
21401;BME280;18038;50.166;18.908;2022-09-21T05:14:07;98506.03;;;6.98;77.85
21401;BME280;18038;50.166;18.908;2022-09-21T05:17:13;98507.50;;;6.92;77.76
21401;BME280;18038;50.166;18.908;2022-09-21T05:20:21;98513.41;;;6.78;78.13
21401;BME280;18038;50.166;18.908;2022-09-21T05:23:29;98515.56;;;6.74;78.44
21401;BME280;18038;50.166;18.908;2022-09-21T05:26:36;98513.50;;;6.60;79.17
21401;BME280;18038;50.166;18.908;2022-09-21T05:29:45;98517.53;;;6.72;79.25
21401;BME280;18038;50.166;18.908;2022-09-21T05:32:56;98509.59;;;6.72;78.69
21401;BME280;18038;50.166;18.908;2022-09-21T05:36:24;98512.59;;;6.77;78.68
21401;BME280;18038;50.166;18.908;2022-09-21T05:39:44;98518.63;;;6.87;78.68
21401;BME280;18038;50.166;18.908;2022-09-21T05:43:10;98512.81;;;6.92;78.25
21401;BME280;18038;50.166;18.908;2022-09-21T05:46:34;98524.06;;;6.86;78.51
21401;BME280;18038;50.166;18.908;2022-09-21T05:49:52;98520.63;;;6.94;78.32
21401;BME280;18038;50.166;18.908;2022-09-21T05:53:39;98525.97;;;7.02;78.19
21401;BME280;18038;50.166;18.908;2022-09-21T05:57:04;98527.28;;;6.98;77.85
21401;BME280;18038;50.166;18.908;2022-09-21T06:00:18;98528.13;;;6.98;78.51
21401;BME280;18038;50.166;18.908;2022-09-21T06:03:30;98533.47;;;7.15;77.84
21401;BME280;18038;50.166;18.908;2022-09-21T06:06:43;98532.34;;;7.17;77.24
21401;BME280;18038;50.166;18.908;2022-09-21T06:09:49;98537.25;;;7.04;77.63
21401;BME280;18038;50.166;18.908;2022-09-21T06:12:55;98543.97;;;7.16;77.97
21401;BME280;18038;50.166;18.908;2022-09-21T06:16:02;98548.16;;;7.27;77.91
21401;BME280;18038;50.166;18.908;2022-09-21T06:19:13;98544.97;;;7.23;77.12
21401;BME280;18038;50.166;18.908;2022-09-21T06:22:18;98537.28;;;7.12;77.72
21401;BME280;18038;50.166;18.908;2022-09-21T06:25:24;98535.47;;;7.12;78.07
21401;BME280;18038;50.166;18.908;2022-09-21T06:28:31;98532.47;;;7.16;77.64
21401;BME280;18038;50.166;18.908;2022-09-21T06:31:36;98537.81;;;7.24;77.83
21401;BME280;18038;50.166;18.908;2022-09-21T06:34:44;98542.97;;;7.17;77.18
21401;BME280;18038;50.166;18.908;2022-09-21T06:37:51;98542.31;;;7.23;77.37
21401;BME280;18038;50.166;18.908;2022-09-21T06:41:00;98546.63;;;7.16;77.16
21401;BME280;18038;50.166;18.908;2022-09-21T06:44:07;98549.94;;;7.18;77.42
21401;BME280;18038;50.166;18.908;2022-09-21T06:47:13;98565.94;;;7.34;77.70
21401;BME280;18038;50.166;18.908;2022-09-21T06:50:22;98560.16;;;7.47;77.18
21401;BME280;18038;50.166;18.908;2022-09-21T06:53:30;98560.97;;;7.31;77.54
21401;BME280;18038;50.166;18.908;2022-09-21T06:56:37;98567.78;;;7.42;77.44
21401;BME280;18038;50.166;18.908;2022-09-21T06:59:44;98573.78;;;7.36;77.20
21401;BME280;18038;50.166;18.908;2022-09-21T07:02:49;98568.97;;;7.40;77.33
21401;BME280;18038;50.166;18.908;2022-09-21T07:05:59;98571.81;;;7.46;77.79
21401;BME280;18038;50.166;18.908;2022-09-21T07:09:07;98583.63;;;7.60;77.16
21401;BME280;18038;50.166;18.908;2022-09-21T07:12:33;98577.81;;;7.56;76.75
21401;BME280;18038;50.166;18.908;2022-09-21T07:15:38;98583.63;;;7.60;76.98
21401;BME280;18038;50.166;18.908;2022-09-21T07:18:44;98584.66;;;7.67;77.14
21401;BME280;18038;50.166;18.908;2022-09-21T07:21:54;98583.47;;;7.62;76.58
21401;BME280;18038;50.166;18.908;2022-09-21T07:25:00;98585.31;;;7.61;76.50
21401;BME280;18038;50.166;18.908;2022-09-21T07:28:11;98575.16;;;7.56;76.89
21401;BME280;18038;50.166;18.908;2022-09-21T07:31:17;98585.84;;;7.81;76.60
21401;BME280;18038;50.166;18.908;2022-09-21T07:34:24;98588.03;;;7.94;76.63
21401;BME280;18038;50.166;18.908;2022-09-21T07:37:32;98580.38;;;7.99;76.42
21401;BME280;18038;50.166;18.908;2022-09-21T07:40:38;98592.66;;;8.16;76.37
21401;BME280;18038;50.166;18.908;2022-09-21T07:43:44;98594.50;;;8.08;75.56
21401;BME280;18038;50.166;18.908;2022-09-21T07:46:50;98597.03;;;8.09;75.80
21401;BME280;18038;50.166;18.908;2022-09-21T07:49:57;98606.31;;;8.21;75.40
21401;BME280;18038;50.166;18.908;2022-09-21T07:53:12;98602.50;;;7.99;75.86
21401;BME280;18038;50.166;18.908;2022-09-21T07:56:28;98605.00;;;8.09;75.44
21401;BME280;18038;50.166;18.908;2022-09-21T07:59:34;98594.16;;;8.19;74.70
21401;BME280;18038;50.166;18.908;2022-09-21T08:02:39;98598.66;;;8.10;75.25
21401;BME280;18038;50.166;18.908;2022-09-21T08:05:51;98608.16;;;8.21;75.50
21401;BME280;18038;50.166;18.908;2022-09-21T08:08:59;98609.31;;;8.02;75.24
21401;BME280;18038;50.166;18.908;2022-09-21T08:12:09;98608.16;;;8.13;75.65
21401;BME280;18038;50.166;18.908;2022-09-21T08:15:14;98615.97;;;8.22;74.23
21401;BME280;18038;50.166;18.908;2022-09-21T08:18:40;98608.47;;;8.34;74.47
21401;BME280;18038;50.166;18.908;2022-09-21T08:21:47;98620.28;;;8.40;74.28
21401;BME280;18038;50.166;18.908;2022-09-21T08:25:01;98617.13;;;8.44;74.50
21401;BME280;18038;50.166;18.908;2022-09-21T08:28:07;98618.97;;;8.52;73.37
21401;BME280;18038;50.166;18.908;2022-09-21T08:31:12;98623.28;;;8.53;73.70
21401;BME280;18038;50.166;18.908;2022-09-21T08:34:18;98627.63;;;8.46;73.38
21401;BME280;18038;50.166;18.908;2022-09-21T08:37:25;98630.78;;;8.41;73.49
21401;BME280;18038;50.166;18.908;2022-09-21T08:40:34;98632.28;;;8.52;73.61
21401;BME280;18038;50.166;18.908;2022-09-21T08:43:42;98625.31;;;8.51;73.95
21401;BME280;18038;50.166;18.908;2022-09-21T08:47:00;98628.78;;;8.68;73.43
21401;BME280;18038;50.166;18.908;2022-09-21T08:50:30;98628.78;;;8.68;73.18
21401;BME280;18038;50.166;18.908;2022-09-21T08:53:44;98625.25;;;8.76;73.09
21401;BME280;18038;50.166;18.908;2022-09-21T08:56:58;98626.25;;;8.83;73.50
21401;BME280;18038;50.166;18.908;2022-09-21T09:00:16;98628.72;;;8.84;73.60
21401;BME280;18038;50.166;18.908;2022-09-21T09:03:40;98629.09;;;8.90;73.40
21401;BME280;18038;50.166;18.908;2022-09-21T09:07:13;98625.75;;;8.87;73.21
21401;BME280;18038;50.166;18.908;2022-09-21T09:10:59;98616.75;;;8.97;73.40
21401;BME280;18038;50.166;18.908;2022-09-21T09:14:48;98625.16;;;9.25;72.42
21401;BME280;18038;50.166;18.908;2022-09-21T09:18:23;98621.06;;;9.45;70.82
21401;BME280;18038;50.166;18.908;2022-09-21T09:21:45;98614.13;;;9.67;71.23
21401;BME280;18038;50.166;18.908;2022-09-21T09:24:55;98621.03;;;9.85;69.93
21401;BME280;18038;50.166;18.908;2022-09-21T09:28:19;98621.22;;;10.06;69.64
21401;BME280;18038;50.166;18.908;2022-09-21T09:31:34;98617.22;;;10.10;68.68
21401;BME280;18038;50.166;18.908;2022-09-21T09:34:48;98623.19;;;9.89;69.17
21401;BME280;18038;50.166;18.908;2022-09-21T09:38:04;98618.44;;;10.00;68.29
21401;BME280;18038;50.166;18.908;2022-09-21T09:41:40;98613.34;;;9.90;67.84
21401;BME280;18038;50.166;18.908;2022-09-21T09:45:26;98623.06;;;10.06;68.04
21401;BME280;18038;50.166;18.908;2022-09-21T09:49:06;98615.91;;;10.29;67.95
21401;BME280;18038;50.166;18.908;2022-09-21T09:52:21;98613.41;;;10.28;67.54
21401;BME280;18038;50.166;18.908;2022-09-21T09:55:35;98624.84;;;10.13;67.65
21401;BME280;18038;50.166;18.908;2022-09-21T09:58:48;98620.63;;;10.19;67.26
21401;BME280;18038;50.166;18.908;2022-09-21T10:01:59;98619.69;;;10.12;67.03
21401;BME280;18038;50.166;18.908;2022-09-21T10:05:19;98620.94;;;10.24;66.13
21401;BME280;18038;50.166;18.908;2022-09-21T10:08:39;98620.72;;;10.34;66.90
21401;BME280;18038;50.166;18.908;2022-09-21T10:11:50;98616.72;;;10.07;67.01
21401;BME280;18038;50.166;18.908;2022-09-21T10:14:57;98621.13;;;10.46;66.23
21401;BME280;18038;50.166;18.908;2022-09-21T10:18:15;98622.94;;;10.22;66.46
21401;BME280;18038;50.166;18.908;2022-09-21T10:21:34;98612.88;;;10.70;66.33
21401;BME280;18038;50.166;18.908;2022-09-21T10:24:51;98608.75;;;11.12;64.93
21401;BME280;18038;50.166;18.908;2022-09-21T10:28:02;98619.28;;;11.14;64.19
21401;BME280;18038;50.166;18.908;2022-09-21T10:31:16;98612.25;;;11.93;61.76
21401;BME280;18038;50.166;18.908;2022-09-21T10:34:27;98609.72;;;11.85;61.50
21401;BME280;18038;50.166;18.908;2022-09-21T10:37:45;98613.34;;;11.99;60.20
21401;BME280;18038;50.166;18.908;2022-09-21T10:40:56;98614.84;;;13.01;59.50
21401;BME280;18038;50.166;18.908;2022-09-21T10:44:02;98606.41;;;14.00;56.07
21401;BME280;18038;50.166;18.908;2022-09-21T10:47:20;98604.34;;;13.96;54.34
21401;BME280;18038;50.166;18.908;2022-09-21T10:50:33;98601.50;;;14.57;53.26
21401;BME280;18038;50.166;18.908;2022-09-21T10:53:56;98599.66;;;14.51;52.96
21401;BME280;18038;50.166;18.908;2022-09-21T10:57:07;98603.78;;;14.27;53.00
21401;BME280;18038;50.166;18.908;2022-09-21T11:00:31;98601.69;;;14.02;53.37
21401;BME280;18038;50.166;18.908;2022-09-21T11:03:53;98594.69;;;14.48;52.22
21401;BME280;18038;50.166;18.908;2022-09-21T11:07:14;98606.25;;;14.35;52.79
21401;BME280;18038;50.166;18.908;2022-09-21T11:10:45;98610.22;;;13.71;53.50
21401;BME280;18038;50.166;18.908;2022-09-21T11:14:06;98609.59;;;13.21;55.34
21401;BME280;18038;50.166;18.908;2022-09-21T11:17:32;98612.00;;;13.09;56.01
21401;BME280;18038;50.166;18.908;2022-09-21T11:20:48;98610.00;;;12.83;56.88
21401;BME280;18038;50.166;18.908;2022-09-21T11:24:08;98603.47;;;13.34;57.11
21401;BME280;18038;50.166;18.908;2022-09-21T11:27:36;98602.31;;;13.56;55.46
21401;BME280;18038;50.166;18.908;2022-09-21T11:34:48;98595.09;;;14.38;52.58
21401;BME280;18038;50.166;18.908;2022-09-21T11:38:11;98598.41;;;15.00;51.72
21401;BME280;18038;50.166;18.908;2022-09-21T11:41:42;98593.34;;;15.37;50.32
21401;BME280;18038;50.166;18.908;2022-09-21T11:45:02;98592.56;;;15.16;51.08
21401;BME280;18038;50.166;18.908;2022-09-21T11:48:28;98593.03;;;14.87;50.57
21401;BME280;18038;50.166;18.908;2022-09-21T11:51:56;98592.72;;;15.35;49.87
21401;BME280;18038;50.166;18.908;2022-09-21T11:55:47;98587.91;;;15.50;48.99
21401;BME280;18038;50.166;18.908;2022-09-21T11:59:37;98582.50;;;14.52;49.67
21401;BME280;18038;50.166;18.908;2022-09-21T12:07:48;98577.53;;;14.42;51.81
21401;BME280;18038;50.166;18.908;2022-09-21T12:11:19;98583.72;;;14.43;51.85
21401;BME280;18038;50.166;18.908;2022-09-21T12:14:42;98586.59;;;14.28;51.59
21401;BME280;18038;50.166;18.908;2022-09-21T12:18:04;98583.13;;;14.34;51.50
21401;BME280;18038;50.166;18.908;2022-09-21T12:21:21;98566.53;;;14.04;52.80
21401;BME280;18038;50.166;18.908;2022-09-21T12:24:36;98577.59;;;13.67;52.76
21401;BME280;18038;50.166;18.908;2022-09-21T12:27:51;98572.03;;;13.21;53.99
21401;BME280;18038;50.166;18.908;2022-09-21T12:31:06;98565.91;;;12.92;55.10
21401;BME280;18038;50.166;18.908;2022-09-21T12:34:20;98572.28;;;12.91;54.56
21401;BME280;18038;50.166;18.908;2022-09-21T12:37:41;98567.44;;;13.08;55.32
21401;BME280;18038;50.166;18.908;2022-09-21T12:41:08;98565.13;;;12.98;54.97
21401;BME280;18038;50.166;18.908;2022-09-21T12:44:27;98557.09;;;12.98;54.97
21401;BME280;18038;50.166;18.908;2022-09-21T12:48:00;98549.53;;;13.70;52.62
21401;BME280;18038;50.166;18.908;2022-09-21T12:51:16;98562.59;;;13.86;52.31
21401;BME280;18038;50.166;18.908;2022-09-21T12:54:39;98554.13;;;13.89;51.26
21401;BME280;18038;50.166;18.908;2022-09-21T12:57:57;98563.06;;;13.42;52.02
21401;BME280;18038;50.166;18.908;2022-09-21T13:01:29;98550.00;;;14.00;52.18
21401;BME280;18038;50.166;18.908;2022-09-21T13:04:47;98537.19;;;14.09;50.53
21401;BME280;18038;50.166;18.908;2022-09-21T13:08:27;98544.00;;;13.85;52.06
21401;BME280;18038;50.166;18.908;2022-09-21T13:11:53;98550.13;;;13.72;52.50
21401;BME280;18038;50.166;18.908;2022-09-21T13:15:15;98537.91;;;13.49;53.92
21401;BME280;18038;50.166;18.908;2022-09-21T13:18:30;98535.63;;;13.53;53.77
21401;BME280;18038;50.166;18.908;2022-09-21T13:21:39;98542.44;;;13.49;54.30
21401;BME280;18038;50.166;18.908;2022-09-21T13:25:01;98534.56;;;13.47;53.64
21401;BME280;18038;50.166;18.908;2022-09-21T13:28:20;98526.31;;;13.42;52.51
21401;BME280;18038;50.166;18.908;2022-09-21T13:31:42;98523.63;;;13.42;51.53
21401;BME280;18038;50.166;18.908;2022-09-21T13:39:18;98528.44;;;13.60;52.04
21401;BME280;18038;50.166;18.908;2022-09-21T13:42:44;98519.28;;;13.41;52.81
21401;BME280;18038;50.166;18.908;2022-09-21T13:45:57;98518.72;;;13.66;52.81
21401;BME280;18038;50.166;18.908;2022-09-21T13:49:15;98511.91;;;13.57;52.61
21401;BME280;18038;50.166;18.908;2022-09-21T13:52:35;98509.00;;;13.52;52.11
21401;BME280;18038;50.166;18.908;2022-09-21T13:55:49;98508.81;;;13.66;53.13
21401;BME280;18038;50.166;18.908;2022-09-21T13:58:58;98509.47;;;13.75;53.48
21401;BME280;18038;50.166;18.908;2022-09-21T14:02:29;98510.25;;;13.69;52.78
21401;BME280;18038;50.166;18.908;2022-09-21T14:05:41;98506.31;;;13.52;52.02
21401;BME280;18038;50.166;18.908;2022-09-21T14:08:58;98509.44;;;13.68;52.54
21401;BME280;18038;50.166;18.908;2022-09-21T14:12:19;98517.66;;;13.54;52.60
21401;BME280;18038;50.166;18.908;2022-09-21T14:15:36;98521.19;;;13.06;53.36
21401;BME280;18038;50.166;18.908;2022-09-21T14:18:47;98531.03;;;12.86;55.48
21401;BME280;18038;50.166;18.908;2022-09-21T14:25:56;98528.53;;;12.28;59.66
21401;BME280;18038;50.166;18.908;2022-09-21T14:29:38;98518.72;;;12.35;58.71
21401;BME280;18038;50.166;18.908;2022-09-21T14:32:58;98525.50;;;12.66;58.58
21401;BME280;18038;50.166;18.908;2022-09-21T14:36:18;98525.69;;;12.92;59.02
21401;BME280;18038;50.166;18.908;2022-09-21T14:39:36;98513.13;;;12.99;58.24
21401;BME280;18038;50.166;18.908;2022-09-21T14:42:46;98514.88;;;12.79;57.27
21401;BME280;18038;50.166;18.908;2022-09-21T14:46:14;98515.69;;;12.73;57.97
21401;BME280;18038;50.166;18.908;2022-09-21T14:49:41;98520.63;;;12.48;57.97
21401;BME280;18038;50.166;18.908;2022-09-21T14:53:33;98521.88;;;11.95;56.77
21401;BME280;18038;50.166;18.908;2022-09-21T14:57:19;98531.31;;;11.70;57.62
21401;BME280;18038;50.166;18.908;2022-09-21T15:00:40;98533.41;;;11.53;57.79
21401;BME280;18038;50.166;18.908;2022-09-21T15:04:11;98535.91;;;11.40;57.23
21401;BME280;18038;50.166;18.908;2022-09-21T15:07:44;98534.66;;;11.06;56.49
21401;BME280;18038;50.166;18.908;2022-09-21T15:11:21;98536.44;;;10.84;57.43
21401;BME280;18038;50.166;18.908;2022-09-21T15:14:36;98537.50;;;10.60;57.76
21401;BME280;18038;50.166;18.908;2022-09-21T15:17:51;98535.75;;;10.14;59.10
21401;BME280;18038;50.166;18.908;2022-09-21T15:21:19;98540.75;;;9.94;60.11
21401;BME280;18038;50.166;18.908;2022-09-21T15:24:31;98541.66;;;9.87;60.88
21401;BME280;18038;50.166;18.908;2022-09-21T15:27:42;98540.97;;;9.62;62.72
21401;BME280;18038;50.166;18.908;2022-09-21T15:30:49;98546.00;;;9.57;64.00
21401;BME280;18038;50.166;18.908;2022-09-21T15:33:56;98541.75;;;9.47;64.83
21401;BME280;18038;50.166;18.908;2022-09-21T15:37:14;98542.31;;;9.35;66.08
21401;BME280;18038;50.166;18.908;2022-09-21T15:40:27;98541.16;;;9.29;66.69
21401;BME280;18038;50.166;18.908;2022-09-21T15:43:39;98545.53;;;9.22;67.20
21401;BME280;18038;50.166;18.908;2022-09-21T15:46:56;98556.75;;;9.09;68.34
21401;BME280;18038;50.166;18.908;2022-09-21T15:50:13;98554.31;;;8.99;68.72
21401;BME280;18038;50.166;18.908;2022-09-21T15:53:28;98561.63;;;8.97;68.60
21401;BME280;18038;50.166;18.908;2022-09-21T15:56:42;98563.59;;;9.03;68.71
21401;BME280;18038;50.166;18.908;2022-09-21T15:59:52;98566.75;;;9.07;68.80
21401;BME280;18038;50.166;18.908;2022-09-21T16:03:02;98565.25;;;9.13;68.12
21401;BME280;18038;50.166;18.908;2022-09-21T16:06:23;98568.41;;;9.08;67.76
21401;BME280;18038;50.166;18.908;2022-09-21T16:09:40;98570.75;;;9.03;67.32
21401;BME280;18038;50.166;18.908;2022-09-21T16:12:46;98575.59;;;9.07;67.54
21401;BME280;18038;50.166;18.908;2022-09-21T16:16:04;98580.75;;;9.01;67.81
21401;BME280;18038;50.166;18.908;2022-09-21T16:19:15;98574.91;;;9.05;67.28
21401;BME280;18038;50.166;18.908;2022-09-21T16:22:26;98572.06;;;9.15;67.29
21401;BME280;18038;50.166;18.908;2022-09-21T16:25:36;98566.22;;;9.12;67.53
21401;BME280;18038;50.166;18.908;2022-09-21T16:28:42;98567.91;;;9.13;67.38
21401;BME280;18038;50.166;18.908;2022-09-21T16:31:51;98576.25;;;9.09;67.31
21401;BME280;18038;50.166;18.908;2022-09-21T16:35:26;98572.28;;;8.97;67.57
21401;BME280;18038;50.166;18.908;2022-09-21T16:38:32;98579.94;;;9.00;68.14
21401;BME280;18038;50.166;18.908;2022-09-21T16:41:43;98587.97;;;8.92;68.15
21401;BME280;18038;50.166;18.908;2022-09-21T16:44:53;98581.28;;;8.80;68.92
21401;BME280;18038;50.166;18.908;2022-09-21T16:48:02;98581.81;;;8.75;69.31
21401;BME280;18038;50.166;18.908;2022-09-21T16:51:13;98584.63;;;8.74;69.39
21401;BME280;18038;50.166;18.908;2022-09-21T16:54:27;98599.16;;;8.63;69.63
21401;BME280;18038;50.166;18.908;2022-09-21T16:57:33;98591.66;;;8.58;70.21
21401;BME280;18038;50.166;18.908;2022-09-21T17:00:41;98599.31;;;8.53;70.34
21401;BME280;18038;50.166;18.908;2022-09-21T17:03:51;98592.00;;;8.47;70.83
21401;BME280;18038;50.166;18.908;2022-09-21T17:06:58;98596.00;;;8.43;71.33
21401;BME280;18038;50.166;18.908;2022-09-21T17:10:25;98592.16;;;8.45;71.75
21401;BME280;18038;50.166;18.908;2022-09-21T17:13:36;98597.00;;;8.42;71.62
21401;BME280;18038;50.166;18.908;2022-09-21T17:16:44;98594.66;;;8.47;71.47
21401;BME280;18038;50.166;18.908;2022-09-21T17:19:54;98600.00;;;8.47;71.68
21401;BME280;18038;50.166;18.908;2022-09-21T17:22:59;98605.31;;;8.47;72.17
21401;BME280;18038;50.166;18.908;2022-09-21T17:26:12;98615.66;;;8.34;72.60
21401;BME280;18038;50.166;18.908;2022-09-21T17:29:24;98611.81;;;8.36;72.49